sensor_id;sensor_type;location;lat;lon;timestamp;temperature;humidity
32534;DHT22;18973;48.580;8.912;2023-03-20T00:00:44;10.70;99.90
32534;DHT22;18973;48.580;8.912;2023-03-20T00:03:11;10.70;99.90
32534;DHT22;18973;48.580;8.912;2023-03-20T00:05:38;10.60;99.90
32534;DHT22;18973;48.580;8.912;2023-03-20T00:08:04;10.70;99.90
32534;DHT22;18973;48.580;8.912;2023-03-20T00:10:34;10.70;99.90
32534;DHT22;18973;48.580;8.912;2023-03-20T00:13:01;10.70;99.90
32534;DHT22;18973;48.580;8.912;2023-03-20T00:15:37;10.70;99.90
32534;DHT22;18973;48.580;8.912;2023-03-20T00:18:15;10.70;99.90
32534;DHT22;18973;48.580;8.912;2023-03-20T00:20:44;10.70;99.90
32534;DHT22;18973;48.580;8.912;2023-03-20T00:23:11;10.70;99.90
32534;DHT22;18973;48.580;8.912;2023-03-20T00:25:37;10.70;99.90
32534;DHT22;18973;48.580;8.912;2023-03-20T00:28:28;10.70;99.90
32534;DHT22;18973;48.580;8.912;2023-03-20T00:30:54;10.70;99.90
32534;DHT22;18973;48.580;8.912;2023-03-20T00:33:20;10.70;99.90
32534;DHT22;18973;48.580;8.912;2023-03-20T00:35:47;10.60;99.90
32534;DHT22;18973;48.580;8.912;2023-03-20T00:38:12;10.60;99.90
32534;DHT22;18973;48.580;8.912;2023-03-20T00:40:38;10.60;99.90
32534;DHT22;18973;48.580;8.912;2023-03-20T00:43:04;10.70;99.90
32534;DHT22;18973;48.580;8.912;2023-03-20T00:45:32;10.70;99.90
32534;DHT22;18973;48.580;8.912;2023-03-20T00:47:58;10.70;99.90
32534;DHT22;18973;48.580;8.912;2023-03-20T00:50:27;10.70;99.90
32534;DHT22;18973;48.580;8.912;2023-03-20T00:52:57;10.70;99.90
32534;DHT22;18973;48.580;8.912;2023-03-20T00:55:27;10.60;99.90
32534;DHT22;18973;48.580;8.912;2023-03-20T00:57:59;10.50;99.90
32534;DHT22;18973;48.580;8.912;2023-03-20T01:00:41;10.50;99.90
32534;DHT22;18973;48.580;8.912;2023-03-20T01:03:18;10.50;99.90
32534;DHT22;18973;48.580;8.912;2023-03-20T01:05:45;10.50;99.90
32534;DHT22;18973;48.580;8.912;2023-03-20T01:08:13;10.50;99.90
32534;DHT22;18973;48.580;8.912;2023-03-20T01:10:39;10.50;99.90
32534;DHT22;18973;48.580;8.912;2023-03-20T01:13:16;10.40;99.90
32534;DHT22;18973;48.580;8.912;2023-03-20T01:15:43;10.50;99.90
32534;DHT22;18973;48.580;8.912;2023-03-20T01:18:12;10.50;99.90
32534;DHT22;18973;48.580;8.912;2023-03-20T01:20:38;10.50;99.90
32534;DHT22;18973;48.580;8.912;2023-03-20T01:23:04;10.50;99.90
32534;DHT22;18973;48.580;8.912;2023-03-20T01:25:30;10.40;99.90
32534;DHT22;18973;48.580;8.912;2023-03-20T01:27:56;10.40;99.90
32534;DHT22;18973;48.580;8.912;2023-03-20T01:30:29;10.40;99.90
32534;DHT22;18973;48.580;8.912;2023-03-20T01:32:56;10.30;99.90
32534;DHT22;18973;48.580;8.912;2023-03-20T01:35:25;10.20;99.90
32534;DHT22;18973;48.580;8.912;2023-03-20T01:37:52;10.20;99.90
32534;DHT22;18973;48.580;8.912;2023-03-20T01:40:31;10.00;99.90
32534;DHT22;18973;48.580;8.912;2023-03-20T01:42:59;10.00;99.90
32534;DHT22;18973;48.580;8.912;2023-03-20T01:45:31;9.90;99.90
32534;DHT22;18973;48.580;8.912;2023-03-20T01:47:57;10.00;99.90
32534;DHT22;18973;48.580;8.912;2023-03-20T01:50:29;9.90;99.90
32534;DHT22;18973;48.580;8.912;2023-03-20T01:55:31;9.90;99.90
32534;DHT22;18973;48.580;8.912;2023-03-20T01:57:59;9.80;99.90
32534;DHT22;18973;48.580;8.912;2023-03-20T02:00:27;9.70;99.90
32534;DHT22;18973;48.580;8.912;2023-03-20T02:02:52;9.70;99.90
32534;DHT22;18973;48.580;8.912;2023-03-20T02:05:21;9.60;99.90
32534;DHT22;18973;48.580;8.912;2023-03-20T02:08:02;9.50;99.90
32534;DHT22;18973;48.580;8.912;2023-03-20T02:10:30;9.70;99.90
32534;DHT22;18973;48.580;8.912;2023-03-20T02:12:56;9.60;99.90
32534;DHT22;18973;48.580;8.912;2023-03-20T02:15:26;9.40;99.90
32534;DHT22;18973;48.580;8.912;2023-03-20T02:17:52;9.40;99.90
32534;DHT22;18973;48.580;8.912;2023-03-20T02:26:28;9.40;99.90
32534;DHT22;18973;48.580;8.912;2023-03-20T02:32:26;9.50;99.90
32534;DHT22;18973;48.580;8.912;2023-03-20T02:40:51;9.70;99.90
32534;DHT22;18973;48.580;8.912;2023-03-20T02:43:31;9.70;99.90
32534;DHT22;18973;48.580;8.912;2023-03-20T02:49:08;9.60;99.90
32534;DHT22;18973;48.580;8.912;2023-03-20T02:55:03;9.70;99.90
32534;DHT22;18973;48.580;8.912;2023-03-20T02:57:43;9.70;99.90
32534;DHT22;18973;48.580;8.912;2023-03-20T03:00:25;9.70;99.90
32534;DHT22;18973;48.580;8.912;2023-03-20T03:08:17;9.80;99.90
32534;DHT22;18973;48.580;8.912;2023-03-20T03:10:50;9.80;99.90
32534;DHT22;18973;48.580;8.912;2023-03-20T03:13:20;9.80;99.90
32534;DHT22;18973;48.580;8.912;2023-03-20T03:15:51;9.60;99.90
32534;DHT22;18973;48.580;8.912;2023-03-20T03:18:20;9.70;99.90
32534;DHT22;18973;48.580;8.912;2023-03-20T03:20:50;9.70;99.90
32534;DHT22;18973;48.580;8.912;2023-03-20T03:25:54;9.60;99.90
32534;DHT22;18973;48.580;8.912;2023-03-20T03:30:55;9.50;99.90
32534;DHT22;18973;48.580;8.912;2023-03-20T03:33:28;9.40;99.90
32534;DHT22;18973;48.580;8.912;2023-03-20T03:36:08;9.50;99.90
32534;DHT22;18973;48.580;8.912;2023-03-20T03:38:43;9.60;99.90
32534;DHT22;18973;48.580;8.912;2023-03-20T03:41:30;9.60;99.90
32534;DHT22;18973;48.580;8.912;2023-03-20T03:46:53;9.30;99.90
32534;DHT22;18973;48.580;8.912;2023-03-20T03:49:28;9.40;99.90
32534;DHT22;18973;48.580;8.912;2023-03-20T03:51:59;9.20;99.90
32534;DHT22;18973;48.580;8.912;2023-03-20T03:54:42;9.30;99.90
32534;DHT22;18973;48.580;8.912;2023-03-20T03:57:09;9.40;99.90
32534;DHT22;18973;48.580;8.912;2023-03-20T03:59:40;9.60;99.90
32534;DHT22;18973;48.580;8.912;2023-03-20T04:02:07;9.60;99.90
32534;DHT22;18973;48.580;8.912;2023-03-20T04:04:41;9.60;99.90
32534;DHT22;18973;48.580;8.912;2023-03-20T04:07:08;9.60;99.90
32534;DHT22;18973;48.580;8.912;2023-03-20T04:09:34;9.60;99.90
32534;DHT22;18973;48.580;8.912;2023-03-20T04:12:00;9.50;99.90
32534;DHT22;18973;48.580;8.912;2023-03-20T04:14:26;9.60;99.90
32534;DHT22;18973;48.580;8.912;2023-03-20T04:16:51;9.50;99.90
32534;DHT22;18973;48.580;8.912;2023-03-20T04:19:17;9.50;99.90
32534;DHT22;18973;48.580;8.912;2023-03-20T04:21:43;9.50;99.90
32534;DHT22;18973;48.580;8.912;2023-03-20T04:24:10;9.50;99.90
32534;DHT22;18973;48.580;8.912;2023-03-20T04:26:36;9.40;99.90
32534;DHT22;18973;48.580;8.912;2023-03-20T04:29:02;9.50;99.90
32534;DHT22;18973;48.580;8.912;2023-03-20T04:31:29;9.30;99.90
32534;DHT22;18973;48.580;8.912;2023-03-20T04:33:55;8.90;99.90
32534;DHT22;18973;48.580;8.912;2023-03-20T04:36:20;8.90;99.90
32534;DHT22;18973;48.580;8.912;2023-03-20T04:38:46;9.00;99.90
32534;DHT22;18973;48.580;8.912;2023-03-20T04:41:12;8.90;99.90
32534;DHT22;18973;48.580;8.912;2023-03-20T04:43:38;9.10;99.90
32534;DHT22;18973;48.580;8.912;2023-03-20T04:46:04;9.10;99.90
32534;DHT22;18973;48.580;8.912;2023-03-20T04:48:30;9.20;99.90
32534;DHT22;18973;48.580;8.912;2023-03-20T04:50:56;9.20;99.90
32534;DHT22;18973;48.580;8.912;2023-03-20T04:53:22;9.20;99.90
32534;DHT22;18973;48.580;8.912;2023-03-20T04:55:48;8.80;99.90
32534;DHT22;18973;48.580;8.912;2023-03-20T04:58:15;8.60;99.90
32534;DHT22;18973;48.580;8.912;2023-03-20T05:00:42;8.70;99.90
32534;DHT22;18973;48.580;8.912;2023-03-20T05:03:08;8.70;99.90
32534;DHT22;18973;48.580;8.912;2023-03-20T05:05:34;8.80;99.90
32534;DHT22;18973;48.580;8.912;2023-03-20T05:08:03;8.90;99.90
32534;DHT22;18973;48.580;8.912;2023-03-20T05:10:30;8.90;99.90
32534;DHT22;18973;48.580;8.912;2023-03-20T05:12:56;9.10;99.90
32534;DHT22;18973;48.580;8.912;2023-03-20T05:15:22;9.10;99.90
32534;DHT22;18973;48.580;8.912;2023-03-20T05:17:48;9.20;99.90
32534;DHT22;18973;48.580;8.912;2023-03-20T05:20:14;9.30;99.90
32534;DHT22;18973;48.580;8.912;2023-03-20T05:22:40;9.30;99.90
32534;DHT22;18973;48.580;8.912;2023-03-20T05:25:06;9.30;99.90
32534;DHT22;18973;48.580;8.912;2023-03-20T05:27:32;9.20;99.90
32534;DHT22;18973;48.580;8.912;2023-03-20T05:29:58;9.20;99.90
32534;DHT22;18973;48.580;8.912;2023-03-20T05:32:23;9.10;99.90
32534;DHT22;18973;48.580;8.912;2023-03-20T05:34:49;9.00;99.90
32534;DHT22;18973;48.580;8.912;2023-03-20T05:37:15;8.80;99.90
32534;DHT22;18973;48.580;8.912;2023-03-20T05:39:41;8.70;99.90
32534;DHT22;18973;48.580;8.912;2023-03-20T05:42:06;8.80;99.90
32534;DHT22;18973;48.580;8.912;2023-03-20T05:44:32;8.80;99.90
32534;DHT22;18973;48.580;8.912;2023-03-20T05:46:58;8.80;99.90
32534;DHT22;18973;48.580;8.912;2023-03-20T05:49:23;8.80;99.90
32534;DHT22;18973;48.580;8.912;2023-03-20T05:51:49;8.80;99.90
32534;DHT22;18973;48.580;8.912;2023-03-20T05:54:15;8.80;99.90
32534;DHT22;18973;48.580;8.912;2023-03-20T05:56:40;8.70;99.90
32534;DHT22;18973;48.580;8.912;2023-03-20T05:59:06;8.90;99.90
32534;DHT22;18973;48.580;8.912;2023-03-20T06:01:32;9.00;99.90
32534;DHT22;18973;48.580;8.912;2023-03-20T06:03:58;8.90;99.90
32534;DHT22;18973;48.580;8.912;2023-03-20T06:06:23;9.00;99.90
32534;DHT22;18973;48.580;8.912;2023-03-20T06:08:49;9.20;99.90
32534;DHT22;18973;48.580;8.912;2023-03-20T06:11:14;9.10;99.90
32534;DHT22;18973;48.580;8.912;2023-03-20T06:13:40;9.20;99.90
32534;DHT22;18973;48.580;8.912;2023-03-20T06:16:06;9.20;99.90
32534;DHT22;18973;48.580;8.912;2023-03-20T06:18:32;9.30;99.90
32534;DHT22;18973;48.580;8.912;2023-03-20T06:20:58;9.40;99.90
32534;DHT22;18973;48.580;8.912;2023-03-20T06:23:24;9.40;99.90
32534;DHT22;18973;48.580;8.912;2023-03-20T06:25:49;9.30;99.90
32534;DHT22;18973;48.580;8.912;2023-03-20T06:28:15;9.20;99.90
32534;DHT22;18973;48.580;8.912;2023-03-20T06:30:42;9.10;99.90
32534;DHT22;18973;48.580;8.912;2023-03-20T06:33:08;9.20;99.90
32534;DHT22;18973;48.580;8.912;2023-03-20T06:35:34;9.40;99.90
32534;DHT22;18973;48.580;8.912;2023-03-20T06:37:59;9.50;99.90
32534;DHT22;18973;48.580;8.912;2023-03-20T06:40:26;9.60;99.90
32534;DHT22;18973;48.580;8.912;2023-03-20T06:42:53;9.50;99.90
32534;DHT22;18973;48.580;8.912;2023-03-20T06:45:19;9.60;99.90
32534;DHT22;18973;48.580;8.912;2023-03-20T06:47:45;9.60;99.90
32534;DHT22;18973;48.580;8.912;2023-03-20T06:50:14;9.60;99.90
32534;DHT22;18973;48.580;8.912;2023-03-20T06:52:40;9.60;99.90
32534;DHT22;18973;48.580;8.912;2023-03-20T06:55:06;9.60;99.90
32534;DHT22;18973;48.580;8.912;2023-03-20T06:57:32;9.50;99.90
32534;DHT22;18973;48.580;8.912;2023-03-20T06:59:58;9.60;99.90
32534;DHT22;18973;48.580;8.912;2023-03-20T07:02:24;9.60;99.90
32534;DHT22;18973;48.580;8.912;2023-03-20T07:04:50;9.80;99.90
32534;DHT22;18973;48.580;8.912;2023-03-20T07:07:16;9.80;99.90
32534;DHT22;18973;48.580;8.912;2023-03-20T07:09:43;9.90;99.90
32534;DHT22;18973;48.580;8.912;2023-03-20T07:12:12;10.00;99.90
32534;DHT22;18973;48.580;8.912;2023-03-20T07:14:39;10.00;99.90
32534;DHT22;18973;48.580;8.912;2023-03-20T07:17:07;10.00;99.90
32534;DHT22;18973;48.580;8.912;2023-03-20T07:19:34;10.10;99.90
32534;DHT22;18973;48.580;8.912;2023-03-20T07:22:02;10.10;99.90
32534;DHT22;18973;48.580;8.912;2023-03-20T07:24:29;10.10;99.90
32534;DHT22;18973;48.580;8.912;2023-03-20T07:26:56;10.10;99.90
32534;DHT22;18973;48.580;8.912;2023-03-20T07:29:22;10.20;99.90
32534;DHT22;18973;48.580;8.912;2023-03-20T07:31:47;10.20;99.90
32534;DHT22;18973;48.580;8.912;2023-03-20T07:34:13;10.00;99.90
32534;DHT22;18973;48.580;8.912;2023-03-20T07:36:39;10.10;99.90
32534;DHT22;18973;48.580;8.912;2023-03-20T07:39:06;10.20;99.90
32534;DHT22;18973;48.580;8.912;2023-03-20T07:41:33;10.20;99.90
32534;DHT22;18973;48.580;8.912;2023-03-20T07:43:58;10.30;99.90
32534;DHT22;18973;48.580;8.912;2023-03-20T07:46:24;10.40;99.90
32534;DHT22;18973;48.580;8.912;2023-03-20T07:48:51;10.40;99.90
32534;DHT22;18973;48.580;8.912;2023-03-20T07:51:16;10.40;99.90
32534;DHT22;18973;48.580;8.912;2023-03-20T07:53:42;10.50;99.90
32534;DHT22;18973;48.580;8.912;2023-03-20T07:56:08;10.50;99.90
32534;DHT22;18973;48.580;8.912;2023-03-20T07:58:35;10.40;99.90
32534;DHT22;18973;48.580;8.912;2023-03-20T08:01:01;10.50;99.90
32534;DHT22;18973;48.580;8.912;2023-03-20T08:03:28;10.50;99.90
32534;DHT22;18973;48.580;8.912;2023-03-20T08:05:54;10.50;99.90
32534;DHT22;18973;48.580;8.912;2023-03-20T08:08:20;10.50;99.90
32534;DHT22;18973;48.580;8.912;2023-03-20T08:10:46;10.50;99.90
32534;DHT22;18973;48.580;8.912;2023-03-20T08:13:12;10.50;99.90
32534;DHT22;18973;48.580;8.912;2023-03-20T08:15:38;10.50;99.90
32534;DHT22;18973;48.580;8.912;2023-03-20T08:18:04;10.50;99.90
32534;DHT22;18973;48.580;8.912;2023-03-20T08:20:30;10.50;99.90
32534;DHT22;18973;48.580;8.912;2023-03-20T08:22:56;10.50;99.90
32534;DHT22;18973;48.580;8.912;2023-03-20T08:25:22;10.60;99.90
32534;DHT22;18973;48.580;8.912;2023-03-20T08:27:48;10.60;99.90
32534;DHT22;18973;48.580;8.912;2023-03-20T08:30:14;10.60;99.90
32534;DHT22;18973;48.580;8.912;2023-03-20T08:32:40;10.70;99.90
32534;DHT22;18973;48.580;8.912;2023-03-20T08:35:07;10.70;99.90
32534;DHT22;18973;48.580;8.912;2023-03-20T08:37:33;10.70;99.90
32534;DHT22;18973;48.580;8.912;2023-03-20T08:39:59;10.60;99.90
32534;DHT22;18973;48.580;8.912;2023-03-20T08:42:25;10.70;99.90
32534;DHT22;18973;48.580;8.912;2023-03-20T08:44:51;10.80;99.90
32534;DHT22;18973;48.580;8.912;2023-03-20T08:47:17;10.90;99.90
32534;DHT22;18973;48.580;8.912;2023-03-20T08:49:43;10.90;99.90
32534;DHT22;18973;48.580;8.912;2023-03-20T08:52:08;10.90;99.90
32534;DHT22;18973;48.580;8.912;2023-03-20T08:54:34;11.00;99.90
32534;DHT22;18973;48.580;8.912;2023-03-20T08:57:00;11.20;99.90
32534;DHT22;18973;48.580;8.912;2023-03-20T08:59:26;11.30;99.90
32534;DHT22;18973;48.580;8.912;2023-03-20T09:01:52;11.30;99.90
32534;DHT22;18973;48.580;8.912;2023-03-20T09:10:41;11.50;99.90
32534;DHT22;18973;48.580;8.912;2023-03-20T09:13:16;11.70;99.90
32534;DHT22;18973;48.580;8.912;2023-03-20T09:15:48;11.70;99.90
32534;DHT22;18973;48.580;8.912;2023-03-20T09:18:24;11.70;99.90
32534;DHT22;18973;48.580;8.912;2023-03-20T09:20:54;11.70;99.90
32534;DHT22;18973;48.580;8.912;2023-03-20T09:23:29;11.80;99.90
32534;DHT22;18973;48.580;8.912;2023-03-20T09:26:00;11.90;99.90
32534;DHT22;18973;48.580;8.912;2023-03-20T09:28:27;11.90;99.90
32534;DHT22;18973;48.580;8.912;2023-03-20T09:30:57;12.00;99.90
32534;DHT22;18973;48.580;8.912;2023-03-20T09:33:28;12.10;99.90
32534;DHT22;18973;48.580;8.912;2023-03-20T09:35:58;12.10;99.90
32534;DHT22;18973;48.580;8.912;2023-03-20T09:38:28;12.20;99.90
32534;DHT22;18973;48.580;8.912;2023-03-20T09:41:02;12.30;99.90
32534;DHT22;18973;48.580;8.912;2023-03-20T09:52:34;12.40;99.90
32534;DHT22;18973;48.580;8.912;2023-03-20T09:55:11;12.40;99.90
32534;DHT22;18973;48.580;8.912;2023-03-20T09:57:44;12.40;99.90
32534;DHT22;18973;48.580;8.912;2023-03-20T10:02:51;12.50;99.90
32534;DHT22;18973;48.580;8.912;2023-03-20T10:05:24;12.50;99.90
32534;DHT22;18973;48.580;8.912;2023-03-20T10:07:53;12.50;99.90
32534;DHT22;18973;48.580;8.912;2023-03-20T10:10:26;12.60;99.90
32534;DHT22;18973;48.580;8.912;2023-03-20T10:18:29;12.80;99.90
32534;DHT22;18973;48.580;8.912;2023-03-20T10:23:35;12.80;99.90
32534;DHT22;18973;48.580;8.912;2023-03-20T10:26:17;12.80;99.90
32534;DHT22;18973;48.580;8.912;2023-03-20T10:28:58;12.80;99.90
32534;DHT22;18973;48.580;8.912;2023-03-20T10:39:36;12.90;99.90
32534;DHT22;18973;48.580;8.912;2023-03-20T10:42:13;12.90;99.90
32534;DHT22;18973;48.580;8.912;2023-03-20T10:44:42;12.90;99.90
32534;DHT22;18973;48.580;8.912;2023-03-20T10:47:13;12.90;99.90
32534;DHT22;18973;48.580;8.912;2023-03-20T10:49:54;13.00;99.90
32534;DHT22;18973;48.580;8.912;2023-03-20T10:52:29;13.20;99.90
32534;DHT22;18973;48.580;8.912;2023-03-20T10:55:04;13.30;99.90
32534;DHT22;18973;48.580;8.912;2023-03-20T10:57:35;13.40;99.90
32534;DHT22;18973;48.580;8.912;2023-03-20T11:00:03;13.50;99.90
32534;DHT22;18973;48.580;8.912;2023-03-20T11:02:30;13.60;99.30
32534;DHT22;18973;48.580;8.912;2023-03-20T11:05:00;13.50;99.50
32534;DHT22;18973;48.580;8.912;2023-03-20T11:07:33;13.50;99.50
32534;DHT22;18973;48.580;8.912;2023-03-20T11:10:06;13.70;99.90
32534;DHT22;18973;48.580;8.912;2023-03-20T11:12:47;14.20;99.90
32534;DHT22;18973;48.580;8.912;2023-03-20T11:15:31;14.20;99.20
32534;DHT22;18973;48.580;8.912;2023-03-20T11:18:00;14.10;99.50
32534;DHT22;18973;48.580;8.912;2023-03-20T11:20:36;14.10;98.60
32534;DHT22;18973;48.580;8.912;2023-03-20T11:23:05;14.20;99.40
32534;DHT22;18973;48.580;8.912;2023-03-20T11:25:37;14.30;99.90
32534;DHT22;18973;48.580;8.912;2023-03-20T11:30:49;14.70;98.40
32534;DHT22;18973;48.580;8.912;2023-03-20T11:33:16;14.60;98.10
32534;DHT22;18973;48.580;8.912;2023-03-20T11:35:46;14.50;97.10
32534;DHT22;18973;48.580;8.912;2023-03-20T11:38:15;14.30;97.90
32534;DHT22;18973;48.580;8.912;2023-03-20T11:40:42;14.10;96.60
32534;DHT22;18973;48.580;8.912;2023-03-20T11:43:12;14.10;98.30
32534;DHT22;18973;48.580;8.912;2023-03-20T11:45:43;14.00;98.40
32534;DHT22;18973;48.580;8.912;2023-03-20T11:48:18;14.10;98.00
32534;DHT22;18973;48.580;8.912;2023-03-20T11:56:11;14.00;97.60
32534;DHT22;18973;48.580;8.912;2023-03-20T11:59:00;14.00;97.40
32534;DHT22;18973;48.580;8.912;2023-03-20T12:01:36;14.00;98.40
32534;DHT22;18973;48.580;8.912;2023-03-20T12:06:51;13.80;97.20
32534;DHT22;18973;48.580;8.912;2023-03-20T12:23:35;14.00;96.90
32534;DHT22;18973;48.580;8.912;2023-03-20T12:28:11;14.80;96.90
32534;DHT22;18973;48.580;8.912;2023-03-20T12:35:55;14.80;96.60
32534;DHT22;18973;48.580;8.912;2023-03-20T12:38:26;14.80;95.50
32534;DHT22;18973;48.580;8.912;2023-03-20T12:41:28;14.80;94.10
32534;DHT22;18973;48.580;8.912;2023-03-20T13:08:29;14.80;94.00
32534;DHT22;18973;48.580;8.912;2023-03-20T13:14:02;14.50;93.30
32534;DHT22;18973;48.580;8.912;2023-03-20T13:16:44;14.40;93.40
32534;DHT22;18973;48.580;8.912;2023-03-20T13:24:34;14.60;93.20
32534;DHT22;18973;48.580;8.912;2023-03-20T13:32:20;14.60;92.80
32534;DHT22;18973;48.580;8.912;2023-03-20T13:35:04;14.60;92.30
32534;DHT22;18973;48.580;8.912;2023-03-20T13:37:42;14.70;92.90
32534;DHT22;18973;48.580;8.912;2023-03-20T13:40:21;14.90;91.20
32534;DHT22;18973;48.580;8.912;2023-03-20T13:42:57;14.80;91.90
32534;DHT22;18973;48.580;8.912;2023-03-20T13:45:35;14.80;92.40
32534;DHT22;18973;48.580;8.912;2023-03-20T13:53:24;15.10;92.50
32534;DHT22;18973;48.580;8.912;2023-03-20T13:56:20;15.20;90.60
32534;DHT22;18973;48.580;8.912;2023-03-20T13:59:01;15.10;90.30
32534;DHT22;18973;48.580;8.912;2023-03-20T14:02:04;15.00;91.40
32534;DHT22;18973;48.580;8.912;2023-03-20T14:04:35;14.90;90.00
32534;DHT22;18973;48.580;8.912;2023-03-20T14:07:01;14.80;91.70
32534;DHT22;18973;48.580;8.912;2023-03-20T14:09:32;14.80;91.70
32534;DHT22;18973;48.580;8.912;2023-03-20T14:12:01;14.90;91.50
32534;DHT22;18973;48.580;8.912;2023-03-20T14:14:30;14.90;90.50
32534;DHT22;18973;48.580;8.912;2023-03-20T14:17:01;14.90;89.30
32534;DHT22;18973;48.580;8.912;2023-03-20T14:19:28;14.80;91.30
32534;DHT22;18973;48.580;8.912;2023-03-20T14:21:54;14.80;90.00
32534;DHT22;18973;48.580;8.912;2023-03-20T14:24:22;14.80;90.00
32534;DHT22;18973;48.580;8.912;2023-03-20T14:26:52;14.70;91.20
32534;DHT22;18973;48.580;8.912;2023-03-20T14:29:41;14.80;89.10
32534;DHT22;18973;48.580;8.912;2023-03-20T14:35:41;14.60;91.60
32534;DHT22;18973;48.580;8.912;2023-03-20T14:46:42;14.50;92.60
32534;DHT22;18973;48.580;8.912;2023-03-20T14:52:01;14.40;92.70
32534;DHT22;18973;48.580;8.912;2023-03-20T14:54:35;14.30;92.30
32534;DHT22;18973;48.580;8.912;2023-03-20T14:57:17;14.20;92.30
32534;DHT22;18973;48.580;8.912;2023-03-20T14:59:48;14.10;91.60
32534;DHT22;18973;48.580;8.912;2023-03-20T15:02:29;14.10;92.70
32534;DHT22;18973;48.580;8.912;2023-03-20T15:04:59;14.00;93.30
32534;DHT22;18973;48.580;8.912;2023-03-20T15:07:28;14.00;92.70
32534;DHT22;18973;48.580;8.912;2023-03-20T15:09:57;14.00;92.00
32534;DHT22;18973;48.580;8.912;2023-03-20T15:12:26;13.90;91.90
32534;DHT22;18973;48.580;8.912;2023-03-20T15:15:02;13.80;93.00
32534;DHT22;18973;48.580;8.912;2023-03-20T15:17:37;13.80;93.30
32534;DHT22;18973;48.580;8.912;2023-03-20T15:20:14;13.80;93.30
32534;DHT22;18973;48.580;8.912;2023-03-20T15:22:52;13.70;93.30
32534;DHT22;18973;48.580;8.912;2023-03-20T15:25:20;13.50;93.00
32534;DHT22;18973;48.580;8.912;2023-03-20T15:27:47;13.60;93.10
32534;DHT22;18973;48.580;8.912;2023-03-20T15:30:16;13.60;94.00
32534;DHT22;18973;48.580;8.912;2023-03-20T15:32:43;13.60;93.50
32534;DHT22;18973;48.580;8.912;2023-03-20T15:35:16;13.60;93.70
32534;DHT22;18973;48.580;8.912;2023-03-20T15:37:47;13.60;94.40
32534;DHT22;18973;48.580;8.912;2023-03-20T15:40:23;13.60;94.30
32534;DHT22;18973;48.580;8.912;2023-03-20T15:42:56;13.60;93.90
32534;DHT22;18973;48.580;8.912;2023-03-20T15:45:30;13.70;94.00
32534;DHT22;18973;48.580;8.912;2023-03-20T15:48:08;13.60;93.70
32534;DHT22;18973;48.580;8.912;2023-03-20T15:50:38;13.60;94.10
32534;DHT22;18973;48.580;8.912;2023-03-20T15:53:05;13.60;94.30
32534;DHT22;18973;48.580;8.912;2023-03-20T15:55:33;13.50;94.40
32534;DHT22;18973;48.580;8.912;2023-03-20T15:58:00;13.40;95.00
32534;DHT22;18973;48.580;8.912;2023-03-20T16:00:33;13.40;95.00
32534;DHT22;18973;48.580;8.912;2023-03-20T16:03:01;13.40;94.70
32534;DHT22;18973;48.580;8.912;2023-03-20T16:05:29;13.40;95.40
32534;DHT22;18973;48.580;8.912;2023-03-20T16:07:55;13.50;93.70
32534;DHT22;18973;48.580;8.912;2023-03-20T16:12:53;13.30;93.10
32534;DHT22;18973;48.580;8.912;2023-03-20T16:15:22;13.30;93.90
32534;DHT22;18973;48.580;8.912;2023-03-20T16:17:51;13.30;94.70
32534;DHT22;18973;48.580;8.912;2023-03-20T16:20:18;13.30;94.10
32534;DHT22;18973;48.580;8.912;2023-03-20T16:22:47;13.30;94.10
32534;DHT22;18973;48.580;8.912;2023-03-20T16:25:15;13.30;94.30
32534;DHT22;18973;48.580;8.912;2023-03-20T16:27:43;13.20;94.30
32534;DHT22;18973;48.580;8.912;2023-03-20T16:30:19;13.30;94.80
32534;DHT22;18973;48.580;8.912;2023-03-20T16:32:48;13.30;94.30
32534;DHT22;18973;48.580;8.912;2023-03-20T16:35:17;13.40;94.00
32534;DHT22;18973;48.580;8.912;2023-03-20T16:37:54;13.40;93.90
32534;DHT22;18973;48.580;8.912;2023-03-20T16:40:29;13.20;93.90
32534;DHT22;18973;48.580;8.912;2023-03-20T16:43:16;13.20;94.20
32534;DHT22;18973;48.580;8.912;2023-03-20T16:45:45;13.20;94.30
32534;DHT22;18973;48.580;8.912;2023-03-20T16:50:39;13.30;94.00
32534;DHT22;18973;48.580;8.912;2023-03-20T16:53:11;13.30;94.50
32534;DHT22;18973;48.580;8.912;2023-03-20T16:55:45;13.20;95.00
32534;DHT22;18973;48.580;8.912;2023-03-20T16:58:26;13.20;95.00
32534;DHT22;18973;48.580;8.912;2023-03-20T17:01:04;13.30;94.60
32534;DHT22;18973;48.580;8.912;2023-03-20T17:03:35;13.20;95.00
32534;DHT22;18973;48.580;8.912;2023-03-20T17:06:07;13.10;94.80
32534;DHT22;18973;48.580;8.912;2023-03-20T17:08:45;13.20;94.80
32534;DHT22;18973;48.580;8.912;2023-03-20T17:11:13;13.20;94.90
32534;DHT22;18973;48.580;8.912;2023-03-20T17:13:40;13.10;95.20
32534;DHT22;18973;48.580;8.912;2023-03-20T17:16:10;13.10;95.40
32534;DHT22;18973;48.580;8.912;2023-03-20T17:18:38;13.00;95.70
32534;DHT22;18973;48.580;8.912;2023-03-20T17:21:03;12.90;96.00
32534;DHT22;18973;48.580;8.912;2023-03-20T17:23:30;12.90;96.00
32534;DHT22;18973;48.580;8.912;2023-03-20T17:25:56;12.80;95.90
32534;DHT22;18973;48.580;8.912;2023-03-20T17:28:26;12.80;96.10
32534;DHT22;18973;48.580;8.912;2023-03-20T17:30:52;12.90;96.10
32534;DHT22;18973;48.580;8.912;2023-03-20T17:33:19;13.00;96.20
32534;DHT22;18973;48.580;8.912;2023-03-20T17:35:45;12.90;96.30
32534;DHT22;18973;48.580;8.912;2023-03-20T17:38:20;12.90;96.50
32534;DHT22;18973;48.580;8.912;2023-03-20T17:40:47;12.80;96.60
32534;DHT22;18973;48.580;8.912;2023-03-20T17:43:15;12.80;96.70
32534;DHT22;18973;48.580;8.912;2023-03-20T17:45:41;12.70;96.80
32534;DHT22;18973;48.580;8.912;2023-03-20T17:48:16;12.50;97.10
32534;DHT22;18973;48.580;8.912;2023-03-20T17:50:43;12.50;97.40
32534;DHT22;18973;48.580;8.912;2023-03-20T17:53:19;12.50;97.50
32534;DHT22;18973;48.580;8.912;2023-03-20T17:55:45;12.40;97.70
32534;DHT22;18973;48.580;8.912;2023-03-20T17:58:19;12.40;97.90
32534;DHT22;18973;48.580;8.912;2023-03-20T18:00:48;12.30;98.00
32534;DHT22;18973;48.580;8.912;2023-03-20T18:03:14;12.30;98.10
32534;DHT22;18973;48.580;8.912;2023-03-20T18:05:49;12.20;98.20
32534;DHT22;18973;48.580;8.912;2023-03-20T18:08:17;12.20;98.30
32534;DHT22;18973;48.580;8.912;2023-03-20T18:10:46;13.20;99.90
32534;DHT22;18973;48.580;8.912;2023-03-20T18:13:12;13.30;99.90
32534;DHT22;18973;48.580;8.912;2023-03-20T18:15:38;13.10;99.90
32534;DHT22;18973;48.580;8.912;2023-03-20T18:18:06;12.90;99.90
32534;DHT22;18973;48.580;8.912;2023-03-20T18:20:34;12.80;99.90
32534;DHT22;18973;48.580;8.912;2023-03-20T18:23:00;12.70;99.90
32534;DHT22;18973;48.580;8.912;2023-03-20T18:25:26;12.60;99.90
32534;DHT22;18973;48.580;8.912;2023-03-20T18:27:53;12.40;99.90
32534;DHT22;18973;48.580;8.912;2023-03-20T18:30:22;12.40;99.90
32534;DHT22;18973;48.580;8.912;2023-03-20T18:32:48;12.30;99.90
32534;DHT22;18973;48.580;8.912;2023-03-20T18:35:14;12.20;99.90
32534;DHT22;18973;48.580;8.912;2023-03-20T18:37:41;12.20;99.90